Aérodrome :
LOGIN :

S'inscrire | Disclaimer

   EN    FR    IT 

 










Légende :    VFR   VFR Marginal   IFR   IFR Intensif   IFR Très Intensif
Visi : 
Plafond : 
>= 8 km
>= 3000ft
5 à 8 km
1000 à 3000 ft
1500m à 5 km
500 à 1000 ft
800 à 1500m
200 à 500 ft
< 800m
< 200 ft
Symboles :   Orages  Brouillard  Fortes neiges  Fortes précipitations  Vent > 20 kt
SIGMETs :   Divers  Orages  Givrage  Turbulence  Onde Orograph.  Cendres Volcan.







- Altitude de l'aérodrome : 814 ft
- Code IATA : TLM


DAON - Zenata - Tlemcen

DERNIER METAR :
  • 262330Z 35003KT 9999 FEW030 SCT233 16/14 Q1013

METARs EXPIRÉS :
  • 262300Z 34006KT 9999 FEW030 SCT233 16/13 Q1013
  • 262230Z 34003KT 9999 FEW030 SCT233 17/13 Q1013
  • 262200Z 34004KT 9999 FEW030 SCT233 17/12 Q1013
  • 262130Z 35003KT 9999 FEW030 SCT233 17/12 Q1013
  • 262100Z 34004KT 9999 FEW030 SCT233 18/13 Q1013
  • 262030Z 34004KT 9999 FEW030 SCT233 18/13 Q1013

TAF TAF DAON
Valide du 27 à 00h jusqu'au 28 à 00h UTC


262300Z 2700/2724 VRB02KT 9999 SCT026
PROB40
TEMPO 2703/2709 6000 -RA BKN020
BECMG 2712/2715 35010KT
BECMG 2721/2723 SCT030 SCT100
Pas de NOTAMs connus pour ce terrain.



MET'MAP, la Météo Aéronautique d'un coup d'oeil ! - Copyright ORBIFLY Décembre 2007 - Disclaimer

ORBIFLY MET'MAP TEAM :

Programmation & Développement : Alexandra Zaïnal
Conception & Développement : Baudouin d'Aumeries
Co-Programmation & Développement : Marc-Olivier Méhu
Soutien technique & logistique : Manuel Goepfert

Contact : metmap@orbifly.com




SOURCES & CREDITS :

   NOAA